Metar z połowy godziny Komunikat METAR ze strony awiacja.imgw.pl Metar G30 EPGD METAR EPGD 170830Z 16009KT 140V200 CAVOK 23/15 Q1018 =